sensor_id;sensor_type;location;lat;lon;timestamp;P1;durP1;ratioP1;P2;durP2;ratioP2
12844;SDS011;68700;48.534;9.196;2023-11-19T00:02:01;5.33;;;3.30;;
12844;SDS011;68700;48.534;9.196;2023-11-19T00:05:23;4.53;;;3.90;;
12844;SDS011;68700;48.534;9.196;2023-11-19T00:08:45;4.93;;;3.80;;
12844;SDS011;68700;48.534;9.196;2023-11-19T00:12:07;4.77;;;3.80;;
12844;SDS011;68700;48.534;9.196;2023-11-19T00:15:31;4.97;;;3.93;;
12844;SDS011;68700;48.534;9.196;2023-11-19T00:18:53;4.10;;;3.70;;
12844;SDS011;68700;48.534;9.196;2023-11-19T00:22:15;5.70;;;4.13;;
12844;SDS011;68700;48.534;9.196;2023-11-19T00:25:37;5.07;;;4.60;;
12844;SDS011;68700;48.534;9.196;2023-11-19T00:29:00;8.10;;;4.77;;
12844;SDS011;68700;48.534;9.196;2023-11-19T00:32:23;5.60;;;4.43;;
12844;SDS011;68700;48.534;9.196;2023-11-19T00:35:45;5.43;;;4.33;;
12844;SDS011;68700;48.534;9.196;2023-11-19T00:39:07;3.70;;;2.50;;
12844;SDS011;68700;48.534;9.196;2023-11-19T00:42:29;3.00;;;2.50;;
12844;SDS011;68700;48.534;9.196;2023-11-19T00:45:51;3.00;;;1.93;;
12844;SDS011;68700;48.534;9.196;2023-11-19T00:49:14;1.93;;;1.83;;
12844;SDS011;68700;48.534;9.196;2023-11-19T00:52:36;1.60;;;1.50;;
12844;SDS011;68700;48.534;9.196;2023-11-19T00:55:59;1.57;;;1.37;;
12844;SDS011;68700;48.534;9.196;2023-11-19T00:59:21;1.50;;;1.40;;
12844;SDS011;68700;48.534;9.196;2023-11-19T01:02:42;1.63;;;1.53;;
12844;SDS011;68700;48.534;9.196;2023-11-19T01:06:06;1.57;;;1.10;;
12844;SDS011;68700;48.534;9.196;2023-11-19T01:09:28;1.20;;;1.10;;
12844;SDS011;68700;48.534;9.196;2023-11-19T01:12:52;1.30;;;1.20;;
12844;SDS011;68700;48.534;9.196;2023-11-19T01:16:14;1.70;;;1.23;;
12844;SDS011;68700;48.534;9.196;2023-11-19T01:19:35;1.67;;;1.07;;
12844;SDS011;68700;48.534;9.196;2023-11-19T01:22:58;1.37;;;1.27;;
12844;SDS011;68700;48.534;9.196;2023-11-19T01:26:20;1.30;;;1.20;;
12844;SDS011;68700;48.534;9.196;2023-11-19T01:29:42;1.47;;;0.97;;
12844;SDS011;68700;48.534;9.196;2023-11-19T01:33:04;1.70;;;1.00;;
12844;SDS011;68700;48.534;9.196;2023-11-19T01:36:27;1.07;;;0.80;;
12844;SDS011;68700;48.534;9.196;2023-11-19T01:39:51;1.90;;;0.90;;
12844;SDS011;68700;48.534;9.196;2023-11-19T01:43:16;1.07;;;0.90;;
12844;SDS011;68700;48.534;9.196;2023-11-19T01:46:53;0.70;;;0.70;;
12844;SDS011;68700;48.534;9.196;2023-11-19T01:50:15;0.90;;;0.77;;
12844;SDS011;68700;48.534;9.196;2023-11-19T01:53:36;0.60;;;0.60;;
12844;SDS011;68700;48.534;9.196;2023-11-19T01:57:02;1.17;;;0.70;;
12844;SDS011;68700;48.534;9.196;2023-11-19T02:00:25;1.10;;;0.80;;
12844;SDS011;68700;48.534;9.196;2023-11-19T02:03:47;1.00;;;0.90;;
12844;SDS011;68700;48.534;9.196;2023-11-19T02:07:09;0.83;;;0.70;;
12844;SDS011;68700;48.534;9.196;2023-11-19T02:10:31;0.83;;;0.83;;
12844;SDS011;68700;48.534;9.196;2023-11-19T02:13:54;0.80;;;0.80;;
12844;SDS011;68700;48.534;9.196;2023-11-19T02:17:26;0.60;;;0.60;;
12844;SDS011;68700;48.534;9.196;2023-11-19T02:20:52;0.60;;;0.60;;
12844;SDS011;68700;48.534;9.196;2023-11-19T02:24:14;1.03;;;0.90;;
12844;SDS011;68700;48.534;9.196;2023-11-19T02:27:46;2.90;;;0.80;;
12844;SDS011;68700;48.534;9.196;2023-11-19T02:31:12;0.90;;;0.70;;
12844;SDS011;68700;48.534;9.196;2023-11-19T02:34:34;0.80;;;0.70;;
12844;SDS011;68700;48.534;9.196;2023-11-19T02:37:56;2.07;;;0.70;;
12844;SDS011;68700;48.534;9.196;2023-11-19T02:41:19;0.90;;;0.73;;
12844;SDS011;68700;48.534;9.196;2023-11-19T02:44:44;0.70;;;0.70;;
12844;SDS011;68700;48.534;9.196;2023-11-19T02:48:06;1.00;;;0.70;;
12844;SDS011;68700;48.534;9.196;2023-11-19T02:51:29;0.60;;;0.60;;
12844;SDS011;68700;48.534;9.196;2023-11-19T02:54:51;0.60;;;0.60;;
12844;SDS011;68700;48.534;9.196;2023-11-19T02:58:13;1.00;;;0.77;;
12844;SDS011;68700;48.534;9.196;2023-11-19T03:01:44;0.70;;;0.70;;
12844;SDS011;68700;48.534;9.196;2023-11-19T03:05:10;0.73;;;0.73;;
12844;SDS011;68700;48.534;9.196;2023-11-19T03:08:35;1.23;;;0.60;;
12844;SDS011;68700;48.534;9.196;2023-11-19T03:11:57;0.80;;;0.70;;
12844;SDS011;68700;48.534;9.196;2023-11-19T03:15:19;0.80;;;0.80;;
12844;SDS011;68700;48.534;9.196;2023-11-19T03:18:42;1.00;;;0.70;;
12844;SDS011;68700;48.534;9.196;2023-11-19T03:22:04;0.60;;;0.60;;
12844;SDS011;68700;48.534;9.196;2023-11-19T03:25:27;1.93;;;0.80;;
12844;SDS011;68700;48.534;9.196;2023-11-19T03:28:53;0.83;;;0.60;;
12844;SDS011;68700;48.534;9.196;2023-11-19T03:32:17;0.90;;;0.70;;
12844;SDS011;68700;48.534;9.196;2023-11-19T03:35:40;0.70;;;0.70;;
12844;SDS011;68700;48.534;9.196;2023-11-19T03:39:02;1.50;;;0.67;;
12844;SDS011;68700;48.534;9.196;2023-11-19T03:42:24;1.30;;;0.83;;
12844;SDS011;68700;48.534;9.196;2023-11-19T03:45:46;1.27;;;0.70;;
12844;SDS011;68700;48.534;9.196;2023-11-19T03:49:08;0.80;;;0.80;;
12844;SDS011;68700;48.534;9.196;2023-11-19T03:52:31;0.70;;;0.70;;
12844;SDS011;68700;48.534;9.196;2023-11-19T03:55:53;0.60;;;0.60;;
12844;SDS011;68700;48.534;9.196;2023-11-19T03:59:14;2.80;;;0.77;;
12844;SDS011;68700;48.534;9.196;2023-11-19T04:02:36;0.70;;;0.60;;
12844;SDS011;68700;48.534;9.196;2023-11-19T04:05:58;2.30;;;0.90;;
12844;SDS011;68700;48.534;9.196;2023-11-19T04:09:21;0.60;;;0.60;;
12844;SDS011;68700;48.534;9.196;2023-11-19T04:12:43;1.13;;;0.70;;
12844;SDS011;68700;48.534;9.196;2023-11-19T04:16:05;0.90;;;0.60;;
12844;SDS011;68700;48.534;9.196;2023-11-19T04:19:28;2.37;;;0.67;;
12844;SDS011;68700;48.534;9.196;2023-11-19T04:22:49;0.80;;;0.70;;
12844;SDS011;68700;48.534;9.196;2023-11-19T04:26:13;2.10;;;0.80;;
12844;SDS011;68700;48.534;9.196;2023-11-19T04:29:35;0.60;;;0.60;;
12844;SDS011;68700;48.534;9.196;2023-11-19T04:32:57;0.67;;;0.60;;
12844;SDS011;68700;48.534;9.196;2023-11-19T04:36:19;0.60;;;0.57;;
12844;SDS011;68700;48.534;9.196;2023-11-19T04:39:44;1.00;;;0.50;;
12844;SDS011;68700;48.534;9.196;2023-11-19T04:43:07;0.40;;;0.40;;
12844;SDS011;68700;48.534;9.196;2023-11-19T04:46:29;0.60;;;0.50;;
12844;SDS011;68700;48.534;9.196;2023-11-19T04:49:51;0.70;;;0.40;;
12844;SDS011;68700;48.534;9.196;2023-11-19T04:53:13;0.40;;;0.40;;
12844;SDS011;68700;48.534;9.196;2023-11-19T04:56:35;0.70;;;0.70;;
12844;SDS011;68700;48.534;9.196;2023-11-19T04:59:59;2.20;;;0.60;;
12844;SDS011;68700;48.534;9.196;2023-11-19T05:03:21;0.50;;;0.50;;
12844;SDS011;68700;48.534;9.196;2023-11-19T05:06:43;0.67;;;0.50;;
12844;SDS011;68700;48.534;9.196;2023-11-19T05:10:05;0.47;;;0.40;;
12844;SDS011;68700;48.534;9.196;2023-11-19T05:13:28;0.67;;;0.57;;
12844;SDS011;68700;48.534;9.196;2023-11-19T05:16:51;0.60;;;0.50;;
12844;SDS011;68700;48.534;9.196;2023-11-19T05:20:13;0.80;;;0.50;;
12844;SDS011;68700;48.534;9.196;2023-11-19T05:23:35;0.77;;;0.50;;
12844;SDS011;68700;48.534;9.196;2023-11-19T05:26:57;0.50;;;0.50;;
12844;SDS011;68700;48.534;9.196;2023-11-19T05:30:19;0.70;;;0.60;;
12844;SDS011;68700;48.534;9.196;2023-11-19T05:33:42;0.57;;;0.47;;
12844;SDS011;68700;48.534;9.196;2023-11-19T05:37:04;0.93;;;0.63;;
12844;SDS011;68700;48.534;9.196;2023-11-19T05:40:26;0.73;;;0.60;;
12844;SDS011;68700;48.534;9.196;2023-11-19T05:43:48;0.60;;;0.60;;
12844;SDS011;68700;48.534;9.196;2023-11-19T05:47:10;0.60;;;0.60;;
12844;SDS011;68700;48.534;9.196;2023-11-19T05:50:33;1.00;;;0.70;;
12844;SDS011;68700;48.534;9.196;2023-11-19T05:53:55;0.90;;;0.90;;
12844;SDS011;68700;48.534;9.196;2023-11-19T05:57:17;0.90;;;0.73;;
12844;SDS011;68700;48.534;9.196;2023-11-19T06:00:42;0.50;;;0.50;;
12844;SDS011;68700;48.534;9.196;2023-11-19T06:04:04;1.57;;;0.50;;
12844;SDS011;68700;48.534;9.196;2023-11-19T06:07:28;0.57;;;0.50;;
12844;SDS011;68700;48.534;9.196;2023-11-19T06:10:50;0.60;;;0.40;;
12844;SDS011;68700;48.534;9.196;2023-11-19T06:14:11;0.83;;;0.50;;
12844;SDS011;68700;48.534;9.196;2023-11-19T06:17:33;1.43;;;0.60;;
12844;SDS011;68700;48.534;9.196;2023-11-19T06:20:55;1.73;;;0.67;;
12844;SDS011;68700;48.534;9.196;2023-11-19T06:24:18;0.53;;;0.50;;
12844;SDS011;68700;48.534;9.196;2023-11-19T06:27:43;1.23;;;0.50;;
12844;SDS011;68700;48.534;9.196;2023-11-19T06:31:05;0.70;;;0.50;;
12844;SDS011;68700;48.534;9.196;2023-11-19T06:34:27;0.70;;;0.60;;
12844;SDS011;68700;48.534;9.196;2023-11-19T06:37:49;0.67;;;0.57;;
12844;SDS011;68700;48.534;9.196;2023-11-19T06:41:12;10.37;;;0.97;;
12844;SDS011;68700;48.534;9.196;2023-11-19T06:44:34;1.43;;;0.50;;
12844;SDS011;68700;48.534;9.196;2023-11-19T06:47:56;0.83;;;0.60;;
12844;SDS011;68700;48.534;9.196;2023-11-19T06:51:18;0.60;;;0.60;;
12844;SDS011;68700;48.534;9.196;2023-11-19T06:54:40;0.90;;;0.70;;
12844;SDS011;68700;48.534;9.196;2023-11-19T06:58:05;1.60;;;0.70;;
12844;SDS011;68700;48.534;9.196;2023-11-19T07:01:27;0.80;;;0.80;;
12844;SDS011;68700;48.534;9.196;2023-11-19T07:04:48;0.43;;;0.43;;
12844;SDS011;68700;48.534;9.196;2023-11-19T07:08:12;1.20;;;0.43;;
12844;SDS011;68700;48.534;9.196;2023-11-19T07:11:37;0.67;;;0.67;;
12844;SDS011;68700;48.534;9.196;2023-11-19T07:15:07;0.60;;;0.60;;
12844;SDS011;68700;48.534;9.196;2023-11-19T07:18:30;0.90;;;0.73;;
12844;SDS011;68700;48.534;9.196;2023-11-19T07:21:54;0.53;;;0.53;;
12844;SDS011;68700;48.534;9.196;2023-11-19T07:25:16;0.60;;;0.57;;
12844;SDS011;68700;48.534;9.196;2023-11-19T07:28:38;0.43;;;0.43;;
12844;SDS011;68700;48.534;9.196;2023-11-19T07:32:02;0.53;;;0.53;;
12844;SDS011;68700;48.534;9.196;2023-11-19T07:35:25;0.70;;;0.70;;
12844;SDS011;68700;48.534;9.196;2023-11-19T07:38:47;1.27;;;0.60;;
12844;SDS011;68700;48.534;9.196;2023-11-19T07:42:08;1.00;;;0.60;;
12844;SDS011;68700;48.534;9.196;2023-11-19T07:45:30;0.60;;;0.60;;
12844;SDS011;68700;48.534;9.196;2023-11-19T07:48:53;0.70;;;0.70;;
12844;SDS011;68700;48.534;9.196;2023-11-19T07:52:15;1.40;;;1.30;;
12844;SDS011;68700;48.534;9.196;2023-11-19T07:55:37;1.00;;;0.90;;
12844;SDS011;68700;48.534;9.196;2023-11-19T07:58:59;0.60;;;0.57;;
12844;SDS011;68700;48.534;9.196;2023-11-19T08:02:21;0.73;;;0.53;;
12844;SDS011;68700;48.534;9.196;2023-11-19T08:05:44;1.40;;;0.63;;
12844;SDS011;68700;48.534;9.196;2023-11-19T08:09:06;1.33;;;0.70;;
12844;SDS011;68700;48.534;9.196;2023-11-19T08:12:33;0.97;;;0.80;;
12844;SDS011;68700;48.534;9.196;2023-11-19T08:15:55;1.57;;;0.70;;
12844;SDS011;68700;48.534;9.196;2023-11-19T08:19:18;1.00;;;0.90;;
12844;SDS011;68700;48.534;9.196;2023-11-19T08:22:41;0.77;;;0.77;;
12844;SDS011;68700;48.534;9.196;2023-11-19T08:26:03;1.90;;;1.40;;
12844;SDS011;68700;48.534;9.196;2023-11-19T08:29:25;3.17;;;1.60;;
12844;SDS011;68700;48.534;9.196;2023-11-19T08:32:49;2.40;;;1.43;;
12844;SDS011;68700;48.534;9.196;2023-11-19T08:36:14;1.77;;;0.80;;
12844;SDS011;68700;48.534;9.196;2023-11-19T08:39:39;2.10;;;0.77;;
12844;SDS011;68700;48.534;9.196;2023-11-19T08:43:02;1.10;;;0.90;;
12844;SDS011;68700;48.534;9.196;2023-11-19T08:46:23;1.10;;;0.90;;
12844;SDS011;68700;48.534;9.196;2023-11-19T08:49:46;2.77;;;1.20;;
12844;SDS011;68700;48.534;9.196;2023-11-19T08:53:08;2.53;;;1.37;;
12844;SDS011;68700;48.534;9.196;2023-11-19T08:56:31;1.33;;;1.07;;
12844;SDS011;68700;48.534;9.196;2023-11-19T08:59:54;2.03;;;0.90;;
12844;SDS011;68700;48.534;9.196;2023-11-19T09:03:16;1.20;;;0.70;;
12844;SDS011;68700;48.534;9.196;2023-11-19T09:06:38;0.70;;;0.67;;
12844;SDS011;68700;48.534;9.196;2023-11-19T09:10:00;1.57;;;1.03;;
12844;SDS011;68700;48.534;9.196;2023-11-19T09:13:23;1.60;;;0.80;;
12844;SDS011;68700;48.534;9.196;2023-11-19T09:16:45;0.70;;;0.70;;
12844;SDS011;68700;48.534;9.196;2023-11-19T09:20:07;0.87;;;0.70;;
12844;SDS011;68700;48.534;9.196;2023-11-19T09:23:35;3.43;;;1.13;;
12844;SDS011;68700;48.534;9.196;2023-11-19T09:26:59;1.80;;;1.20;;
12844;SDS011;68700;48.534;9.196;2023-11-19T09:30:22;1.20;;;0.70;;
12844;SDS011;68700;48.534;9.196;2023-11-19T09:33:44;1.13;;;0.93;;
12844;SDS011;68700;48.534;9.196;2023-11-19T09:37:06;0.77;;;0.77;;
12844;SDS011;68700;48.534;9.196;2023-11-19T09:40:29;1.30;;;0.93;;
12844;SDS011;68700;48.534;9.196;2023-11-19T09:43:51;1.57;;;1.20;;
12844;SDS011;68700;48.534;9.196;2023-11-19T09:47:14;2.83;;;1.17;;
12844;SDS011;68700;48.534;9.196;2023-11-19T09:50:40;1.40;;;1.00;;
12844;SDS011;68700;48.534;9.196;2023-11-19T09:54:02;1.80;;;1.10;;
12844;SDS011;68700;48.534;9.196;2023-11-19T09:57:24;1.17;;;0.90;;
12844;SDS011;68700;48.534;9.196;2023-11-19T10:00:46;0.87;;;0.70;;
12844;SDS011;68700;48.534;9.196;2023-11-19T10:04:10;1.30;;;0.90;;
12844;SDS011;68700;48.534;9.196;2023-11-19T10:07:36;2.73;;;1.30;;
12844;SDS011;68700;48.534;9.196;2023-11-19T10:10:58;1.00;;;0.73;;
12844;SDS011;68700;48.534;9.196;2023-11-19T10:14:21;0.50;;;0.50;;
12844;SDS011;68700;48.534;9.196;2023-11-19T10:17:44;1.80;;;0.90;;
12844;SDS011;68700;48.534;9.196;2023-11-19T10:21:08;1.67;;;1.10;;
12844;SDS011;68700;48.534;9.196;2023-11-19T10:24:36;1.23;;;0.90;;
12844;SDS011;68700;48.534;9.196;2023-11-19T10:28:01;1.67;;;0.87;;
12844;SDS011;68700;48.534;9.196;2023-11-19T10:31:23;1.10;;;1.00;;
12844;SDS011;68700;48.534;9.196;2023-11-19T10:34:46;1.53;;;0.90;;
12844;SDS011;68700;48.534;9.196;2023-11-19T10:38:14;1.17;;;0.70;;
12844;SDS011;68700;48.534;9.196;2023-11-19T10:41:36;1.40;;;0.93;;
12844;SDS011;68700;48.534;9.196;2023-11-19T10:45:05;1.47;;;0.80;;
12844;SDS011;68700;48.534;9.196;2023-11-19T10:48:44;0.93;;;0.77;;
12844;SDS011;68700;48.534;9.196;2023-11-19T10:52:06;0.80;;;0.80;;
12844;SDS011;68700;48.534;9.196;2023-11-19T10:55:32;2.20;;;0.90;;
12844;SDS011;68700;48.534;9.196;2023-11-19T10:58:55;2.90;;;0.80;;
12844;SDS011;68700;48.534;9.196;2023-11-19T11:02:22;0.70;;;0.70;;
12844;SDS011;68700;48.534;9.196;2023-11-19T11:05:47;1.30;;;0.80;;
12844;SDS011;68700;48.534;9.196;2023-11-19T11:09:09;0.70;;;0.70;;
12844;SDS011;68700;48.534;9.196;2023-11-19T11:12:34;0.80;;;0.80;;
12844;SDS011;68700;48.534;9.196;2023-11-19T11:15:58;1.93;;;0.70;;
12844;SDS011;68700;48.534;9.196;2023-11-19T11:19:20;0.87;;;0.80;;
12844;SDS011;68700;48.534;9.196;2023-11-19T11:22:44;0.70;;;0.70;;
12844;SDS011;68700;48.534;9.196;2023-11-19T11:26:33;2.63;;;0.80;;
12844;SDS011;68700;48.534;9.196;2023-11-19T11:30:11;1.70;;;0.70;;
12844;SDS011;68700;48.534;9.196;2023-11-19T11:33:55;0.87;;;0.70;;
12844;SDS011;68700;48.534;9.196;2023-11-19T11:37:33;0.53;;;0.53;;
12844;SDS011;68700;48.534;9.196;2023-11-19T11:41:15;1.33;;;0.63;;
12844;SDS011;68700;48.534;9.196;2023-11-19T11:44:58;0.90;;;0.60;;
12844;SDS011;68700;48.534;9.196;2023-11-19T11:48:23;0.90;;;0.63;;
12844;SDS011;68700;48.534;9.196;2023-11-19T11:51:57;1.40;;;0.80;;
12844;SDS011;68700;48.534;9.196;2023-11-19T11:55:23;0.70;;;0.60;;
12844;SDS011;68700;48.534;9.196;2023-11-19T11:58:45;0.50;;;0.50;;
12844;SDS011;68700;48.534;9.196;2023-11-19T12:02:08;0.40;;;0.40;;
12844;SDS011;68700;48.534;9.196;2023-11-19T12:05:32;0.60;;;0.60;;
12844;SDS011;68700;48.534;9.196;2023-11-19T12:08:59;0.77;;;0.77;;
12844;SDS011;68700;48.534;9.196;2023-11-19T12:12:21;0.50;;;0.50;;
12844;SDS011;68700;48.534;9.196;2023-11-19T12:19:32;1.47;;;0.80;;
12844;SDS011;68700;48.534;9.196;2023-11-19T12:22:55;1.57;;;0.90;;
12844;SDS011;68700;48.534;9.196;2023-11-19T12:26:33;3.30;;;0.80;;
12844;SDS011;68700;48.534;9.196;2023-11-19T12:29:55;1.20;;;0.83;;
12844;SDS011;68700;48.534;9.196;2023-11-19T12:33:18;1.23;;;0.97;;
12844;SDS011;68700;48.534;9.196;2023-11-19T12:36:40;0.73;;;0.60;;
12844;SDS011;68700;48.534;9.196;2023-11-19T12:40:07;0.83;;;0.70;;
12844;SDS011;68700;48.534;9.196;2023-11-19T12:43:37;1.17;;;0.70;;
12844;SDS011;68700;48.534;9.196;2023-11-19T12:46:59;1.47;;;0.60;;
12844;SDS011;68700;48.534;9.196;2023-11-19T12:50:22;1.23;;;0.90;;
12844;SDS011;68700;48.534;9.196;2023-11-19T12:53:47;0.93;;;0.77;;
12844;SDS011;68700;48.534;9.196;2023-11-19T12:57:11;1.40;;;0.90;;
12844;SDS011;68700;48.534;9.196;2023-11-19T13:00:33;0.50;;;0.50;;
12844;SDS011;68700;48.534;9.196;2023-11-19T13:03:55;0.60;;;0.60;;
12844;SDS011;68700;48.534;9.196;2023-11-19T13:07:20;2.20;;;1.00;;
12844;SDS011;68700;48.534;9.196;2023-11-19T13:10:49;0.90;;;0.80;;
12844;SDS011;68700;48.534;9.196;2023-11-19T13:14:15;0.87;;;0.73;;
12844;SDS011;68700;48.534;9.196;2023-11-19T13:17:36;1.97;;;0.80;;
12844;SDS011;68700;48.534;9.196;2023-11-19T13:20:58;1.30;;;0.77;;
12844;SDS011;68700;48.534;9.196;2023-11-19T13:24:21;0.77;;;0.60;;
12844;SDS011;68700;48.534;9.196;2023-11-19T13:27:45;0.63;;;0.63;;
12844;SDS011;68700;48.534;9.196;2023-11-19T13:31:08;1.30;;;0.80;;
12844;SDS011;68700;48.534;9.196;2023-11-19T13:34:30;1.73;;;0.80;;
12844;SDS011;68700;48.534;9.196;2023-11-19T13:37:52;0.90;;;0.70;;
12844;SDS011;68700;48.534;9.196;2023-11-19T13:41:14;0.63;;;0.60;;
12844;SDS011;68700;48.534;9.196;2023-11-19T13:44:36;1.40;;;0.70;;
12844;SDS011;68700;48.534;9.196;2023-11-19T13:47:59;1.37;;;0.60;;
12844;SDS011;68700;48.534;9.196;2023-11-19T13:51:21;2.17;;;0.80;;
12844;SDS011;68700;48.534;9.196;2023-11-19T13:54:43;1.40;;;1.10;;
12844;SDS011;68700;48.534;9.196;2023-11-19T13:58:05;1.10;;;0.83;;
12844;SDS011;68700;48.534;9.196;2023-11-19T14:01:27;2.70;;;1.07;;
12844;SDS011;68700;48.534;9.196;2023-11-19T14:04:50;2.00;;;1.10;;
12844;SDS011;68700;48.534;9.196;2023-11-19T14:08:12;1.13;;;0.80;;
12844;SDS011;68700;48.534;9.196;2023-11-19T14:11:34;1.90;;;0.70;;
12844;SDS011;68700;48.534;9.196;2023-11-19T14:14:55;1.97;;;1.00;;
12844;SDS011;68700;48.534;9.196;2023-11-19T14:18:17;2.13;;;0.90;;
12844;SDS011;68700;48.534;9.196;2023-11-19T14:21:41;1.00;;;0.80;;
12844;SDS011;68700;48.534;9.196;2023-11-19T14:25:04;1.43;;;0.83;;
12844;SDS011;68700;48.534;9.196;2023-11-19T14:28:29;0.87;;;0.80;;
12844;SDS011;68700;48.534;9.196;2023-11-19T14:31:51;1.70;;;0.83;;
12844;SDS011;68700;48.534;9.196;2023-11-19T14:35:14;1.20;;;1.00;;
12844;SDS011;68700;48.534;9.196;2023-11-19T14:38:37;1.37;;;0.80;;
12844;SDS011;68700;48.534;9.196;2023-11-19T14:42:00;2.00;;;0.60;;
12844;SDS011;68700;48.534;9.196;2023-11-19T14:45:25;0.70;;;0.70;;
12844;SDS011;68700;48.534;9.196;2023-11-19T14:48:47;1.63;;;1.10;;
12844;SDS011;68700;48.534;9.196;2023-11-19T14:52:09;2.93;;;0.73;;
12844;SDS011;68700;48.534;9.196;2023-11-19T14:55:32;1.57;;;0.70;;
12844;SDS011;68700;48.534;9.196;2023-11-19T14:58:54;1.00;;;0.80;;
12844;SDS011;68700;48.534;9.196;2023-11-19T15:02:16;2.53;;;2.03;;
12844;SDS011;68700;48.534;9.196;2023-11-19T15:05:38;2.30;;;1.70;;
12844;SDS011;68700;48.534;9.196;2023-11-19T15:09:00;1.43;;;1.10;;
12844;SDS011;68700;48.534;9.196;2023-11-19T15:12:23;2.57;;;0.80;;
12844;SDS011;68700;48.534;9.196;2023-11-19T15:15:47;1.60;;;0.80;;
12844;SDS011;68700;48.534;9.196;2023-11-19T15:19:08;0.60;;;0.60;;
12844;SDS011;68700;48.534;9.196;2023-11-19T15:22:32;1.13;;;0.73;;
12844;SDS011;68700;48.534;9.196;2023-11-19T15:25:54;1.10;;;0.80;;
12844;SDS011;68700;48.534;9.196;2023-11-19T15:29:18;0.80;;;0.80;;
12844;SDS011;68700;48.534;9.196;2023-11-19T15:32:39;1.50;;;1.00;;
12844;SDS011;68700;48.534;9.196;2023-11-19T15:36:02;1.67;;;1.40;;
12844;SDS011;68700;48.534;9.196;2023-11-19T15:39:27;1.50;;;0.80;;
12844;SDS011;68700;48.534;9.196;2023-11-19T15:42:49;2.43;;;1.00;;
12844;SDS011;68700;48.534;9.196;2023-11-19T15:46:14;1.50;;;1.40;;
12844;SDS011;68700;48.534;9.196;2023-11-19T15:49:36;1.47;;;1.20;;
12844;SDS011;68700;48.534;9.196;2023-11-19T15:52:58;1.13;;;1.00;;
12844;SDS011;68700;48.534;9.196;2023-11-19T15:56:21;1.93;;;0.93;;
12844;SDS011;68700;48.534;9.196;2023-11-19T15:59:43;0.90;;;0.90;;
12844;SDS011;68700;48.534;9.196;2023-11-19T16:03:06;1.63;;;0.90;;
12844;SDS011;68700;48.534;9.196;2023-11-19T16:06:28;1.40;;;0.90;;
12844;SDS011;68700;48.534;9.196;2023-11-19T16:09:50;1.87;;;0.93;;
12844;SDS011;68700;48.534;9.196;2023-11-19T16:13:12;1.80;;;1.10;;
12844;SDS011;68700;48.534;9.196;2023-11-19T16:16:34;2.23;;;0.93;;
12844;SDS011;68700;48.534;9.196;2023-11-19T16:19:57;1.70;;;1.10;;
12844;SDS011;68700;48.534;9.196;2023-11-19T16:23:19;1.00;;;0.90;;
12844;SDS011;68700;48.534;9.196;2023-11-19T16:26:41;1.80;;;0.90;;
12844;SDS011;68700;48.534;9.196;2023-11-19T16:30:03;1.27;;;1.10;;
12844;SDS011;68700;48.534;9.196;2023-11-19T16:33:26;1.70;;;1.10;;
12844;SDS011;68700;48.534;9.196;2023-11-19T16:36:49;1.10;;;1.00;;
12844;SDS011;68700;48.534;9.196;2023-11-19T16:40:11;1.47;;;0.80;;
12844;SDS011;68700;48.534;9.196;2023-11-19T16:43:34;1.77;;;1.13;;
12844;SDS011;68700;48.534;9.196;2023-11-19T16:46:56;1.10;;;1.00;;
12844;SDS011;68700;48.534;9.196;2023-11-19T16:50:17;2.50;;;1.20;;
12844;SDS011;68700;48.534;9.196;2023-11-19T16:53:45;1.50;;;1.07;;
12844;SDS011;68700;48.534;9.196;2023-11-19T16:57:07;2.40;;;1.20;;
12844;SDS011;68700;48.534;9.196;2023-11-19T17:00:29;0.83;;;0.80;;
12844;SDS011;68700;48.534;9.196;2023-11-19T17:03:54;1.20;;;0.90;;
12844;SDS011;68700;48.534;9.196;2023-11-19T17:07:19;2.60;;;1.10;;
12844;SDS011;68700;48.534;9.196;2023-11-19T17:10:42;2.17;;;1.10;;
12844;SDS011;68700;48.534;9.196;2023-11-19T17:14:05;2.10;;;1.00;;
12844;SDS011;68700;48.534;9.196;2023-11-19T17:17:27;1.27;;;1.00;;
12844;SDS011;68700;48.534;9.196;2023-11-19T17:20:53;1.17;;;1.03;;
12844;SDS011;68700;48.534;9.196;2023-11-19T17:24:15;2.13;;;1.13;;
12844;SDS011;68700;48.534;9.196;2023-11-19T17:27:39;1.87;;;1.37;;
12844;SDS011;68700;48.534;9.196;2023-11-19T17:31:02;3.33;;;2.27;;
12844;SDS011;68700;48.534;9.196;2023-11-19T17:34:24;2.70;;;2.20;;
12844;SDS011;68700;48.534;9.196;2023-11-19T17:37:46;3.60;;;1.57;;
12844;SDS011;68700;48.534;9.196;2023-11-19T17:41:08;3.50;;;1.80;;
12844;SDS011;68700;48.534;9.196;2023-11-19T17:44:32;2.87;;;2.00;;
12844;SDS011;68700;48.534;9.196;2023-11-19T17:47:55;3.53;;;1.70;;
12844;SDS011;68700;48.534;9.196;2023-11-19T17:51:17;2.23;;;1.67;;
12844;SDS011;68700;48.534;9.196;2023-11-19T17:54:39;3.20;;;1.70;;
12844;SDS011;68700;48.534;9.196;2023-11-19T17:58:01;2.67;;;1.60;;
12844;SDS011;68700;48.534;9.196;2023-11-19T18:01:24;5.37;;;2.00;;
12844;SDS011;68700;48.534;9.196;2023-11-19T18:04:47;2.50;;;2.13;;
12844;SDS011;68700;48.534;9.196;2023-11-19T18:08:09;2.40;;;2.13;;
12844;SDS011;68700;48.534;9.196;2023-11-19T18:11:35;3.63;;;1.80;;
12844;SDS011;68700;48.534;9.196;2023-11-19T18:14:57;3.90;;;2.00;;
12844;SDS011;68700;48.534;9.196;2023-11-19T18:18:20;2.37;;;1.70;;
12844;SDS011;68700;48.534;9.196;2023-11-19T18:21:42;2.70;;;1.40;;
12844;SDS011;68700;48.534;9.196;2023-11-19T18:25:04;2.40;;;1.63;;
12844;SDS011;68700;48.534;9.196;2023-11-19T18:28:30;3.93;;;1.70;;
12844;SDS011;68700;48.534;9.196;2023-11-19T18:31:51;2.40;;;1.80;;
12844;SDS011;68700;48.534;9.196;2023-11-19T18:35:16;2.57;;;1.47;;
12844;SDS011;68700;48.534;9.196;2023-11-19T18:38:43;4.03;;;1.77;;
12844;SDS011;68700;48.534;9.196;2023-11-19T18:42:05;4.13;;;1.80;;
12844;SDS011;68700;48.534;9.196;2023-11-19T18:45:27;5.53;;;2.13;;
12844;SDS011;68700;48.534;9.196;2023-11-19T18:48:49;4.40;;;1.97;;
12844;SDS011;68700;48.534;9.196;2023-11-19T18:52:13;3.40;;;2.03;;
12844;SDS011;68700;48.534;9.196;2023-11-19T18:55:35;2.50;;;2.07;;
12844;SDS011;68700;48.534;9.196;2023-11-19T18:58:57;3.77;;;2.20;;
12844;SDS011;68700;48.534;9.196;2023-11-19T19:02:19;4.10;;;2.20;;
12844;SDS011;68700;48.534;9.196;2023-11-19T19:05:41;3.63;;;2.37;;
12844;SDS011;68700;48.534;9.196;2023-11-19T19:09:04;3.57;;;2.50;;
12844;SDS011;68700;48.534;9.196;2023-11-19T19:12:26;5.07;;;3.27;;
12844;SDS011;68700;48.534;9.196;2023-11-19T19:15:48;4.63;;;2.40;;
12844;SDS011;68700;48.534;9.196;2023-11-19T19:19:10;4.43;;;2.70;;
12844;SDS011;68700;48.534;9.196;2023-11-19T19:22:32;6.40;;;2.90;;
12844;SDS011;68700;48.534;9.196;2023-11-19T19:25:55;5.27;;;2.70;;
12844;SDS011;68700;48.534;9.196;2023-11-19T19:29:18;4.43;;;2.20;;
12844;SDS011;68700;48.534;9.196;2023-11-19T19:32:40;3.63;;;2.40;;
12844;SDS011;68700;48.534;9.196;2023-11-19T19:36:04;2.30;;;2.10;;
12844;SDS011;68700;48.534;9.196;2023-11-19T19:39:29;4.17;;;1.73;;
12844;SDS011;68700;48.534;9.196;2023-11-19T19:42:53;2.50;;;1.90;;
12844;SDS011;68700;48.534;9.196;2023-11-19T19:46:17;4.13;;;2.43;;
12844;SDS011;68700;48.534;9.196;2023-11-19T19:49:39;4.43;;;2.70;;
12844;SDS011;68700;48.534;9.196;2023-11-19T19:53:02;3.40;;;2.40;;
12844;SDS011;68700;48.534;9.196;2023-11-19T19:56:24;3.10;;;2.50;;
12844;SDS011;68700;48.534;9.196;2023-11-19T19:59:47;5.30;;;2.57;;
12844;SDS011;68700;48.534;9.196;2023-11-19T20:03:10;3.30;;;2.50;;
12844;SDS011;68700;48.534;9.196;2023-11-19T20:06:35;3.37;;;2.13;;
12844;SDS011;68700;48.534;9.196;2023-11-19T20:09:58;4.20;;;2.93;;
12844;SDS011;68700;48.534;9.196;2023-11-19T20:13:20;2.87;;;2.23;;
12844;SDS011;68700;48.534;9.196;2023-11-19T20:16:44;5.77;;;2.43;;
12844;SDS011;68700;48.534;9.196;2023-11-19T20:20:06;7.43;;;2.57;;
12844;SDS011;68700;48.534;9.196;2023-11-19T20:23:31;3.53;;;2.00;;
12844;SDS011;68700;48.534;9.196;2023-11-19T20:26:53;2.53;;;1.60;;
12844;SDS011;68700;48.534;9.196;2023-11-19T20:30:15;2.17;;;1.77;;